createdAt,value
2019-05-11T00:00:36.133Z,41.35
2019-05-11T00:03:05.362Z,39.78
2019-05-11T00:05:34.529Z,40.17
2019-05-11T00:08:03.789Z,40.33
2019-05-11T00:10:33.006Z,41.60
2019-05-11T00:13:02.244Z,43.42
2019-05-11T00:15:31.557Z,40.28
2019-05-11T00:18:00.810Z,42.60
2019-05-11T00:20:30.046Z,40.88
2019-05-11T00:22:59.227Z,40.85
2019-05-11T00:25:28.591Z,38.33
2019-05-11T00:27:57.765Z,41.45
2019-05-11T00:30:26.952Z,42.73
2019-05-11T00:32:56.198Z,44.67
2019-05-11T00:35:25.483Z,43.48
2019-05-11T00:37:54.752Z,42.53
2019-05-11T00:40:24.038Z,42.10
2019-05-11T00:42:53.265Z,40.35
2019-05-11T00:45:22.434Z,41.48
2019-05-11T00:47:51.623Z,43.55
2019-05-11T00:50:20.903Z,43.10
2019-05-11T00:52:50.154Z,42.45
2019-05-11T00:55:19.390Z,41.35
2019-05-11T00:57:48.637Z,41.58
2019-05-11T01:00:17.826Z,38.53
2019-05-11T01:02:47.049Z,39.53
2019-05-11T01:05:16.316Z,36.15
2019-05-11T01:07:45.559Z,37.63
2019-05-11T01:10:23.669Z,33.73
2019-05-11T01:12:45.960Z,36.15
2019-05-11T01:15:15.166Z,33.60
2019-05-11T01:17:44.529Z,32.83
2019-05-11T01:20:14.145Z,33.50
2019-05-11T01:22:43.404Z,33.00
2019-05-11T01:25:12.700Z,31.15
2019-05-11T01:27:41.969Z,27.20
2019-05-11T01:30:11.215Z,28.75
2019-05-11T01:32:40.589Z,30.70
2019-05-11T01:35:10.061Z,28.42
2019-05-11T01:37:39.241Z,26.27
2019-05-11T01:40:08.480Z,27.60
2019-05-11T01:42:37.721Z,26.73
2019-05-11T01:45:06.942Z,25.30
2019-05-11T01:47:36.162Z,24.67
2019-05-11T01:50:05.419Z,24.95
2019-05-11T01:52:34.594Z,24.85
2019-05-11T01:55:03.821Z,25.45
2019-05-11T01:57:33.066Z,25.35
2019-05-11T02:00:02.304Z,26.27
2019-05-11T02:02:31.598Z,25.92
2019-05-11T02:05:18.811Z,25.40
2019-05-11T02:07:48.038Z,27.13
2019-05-11T02:10:23.845Z,27.90
2019-05-11T02:12:53.517Z,27.05
2019-05-11T02:15:22.697Z,26.42
2019-05-11T02:17:51.867Z,25.80
2019-05-11T02:20:21.159Z,26.02
2019-05-11T02:22:50.450Z,26.62
2019-05-11T02:25:19.711Z,26.15
2019-05-11T02:27:48.875Z,26.42
2019-05-11T02:30:18.276Z,26.55
2019-05-11T02:32:47.436Z,27.15
2019-05-11T02:35:16.617Z,27.75
2019-05-11T02:37:46.285Z,25.82
2019-05-11T02:40:15.533Z,25.72
2019-05-11T02:42:44.777Z,26.40
2019-05-11T02:45:14.015Z,27.02
2019-05-11T02:47:43.805Z,27.42
2019-05-11T02:50:12.983Z,27.30
2019-05-11T02:52:42.380Z,29.10
2019-05-11T02:55:11.638Z,27.60
2019-05-11T02:57:40.876Z,26.55
2019-05-11T03:00:10.142Z,26.45
2019-05-11T03:02:39.323Z,26.40
2019-05-11T03:05:08.631Z,24.87
2019-05-11T03:07:37.878Z,27.13
2019-05-11T03:10:07.124Z,27.30
2019-05-11T03:12:36.354Z,28.32
2019-05-11T03:15:07.231Z,27.27
2019-05-11T03:17:36.474Z,27.37
2019-05-11T03:20:06.979Z,28.12
2019-05-11T03:22:36.230Z,27.15
2019-05-11T03:25:06.400Z,28.25
2019-05-11T03:27:35.585Z,28.40
2019-05-11T03:30:06.908Z,27.37
2019-05-11T03:32:36.118Z,27.45
2019-05-11T03:35:06.097Z,27.85
2019-05-11T03:37:35.409Z,27.62
2019-05-11T03:40:06.629Z,27.62
2019-05-11T03:42:36.128Z,28.77
2019-05-11T03:45:06.546Z,28.10
2019-05-11T03:47:35.770Z,27.55
2019-05-11T03:50:06.812Z,26.93
2019-05-11T03:52:36.006Z,27.35
2019-05-11T03:55:06.162Z,27.93
2019-05-11T03:57:35.434Z,26.57
2019-05-11T04:00:07.190Z,27.65
2019-05-11T04:02:36.423Z,29.18
2019-05-11T04:05:06.128Z,30.80
2019-05-11T04:07:35.407Z,31.55
2019-05-11T04:10:06.587Z,29.60
2019-05-11T04:12:36.042Z,28.92
2019-05-11T04:15:08.951Z,27.52
2019-05-11T04:17:38.421Z,25.85
2019-05-11T04:20:07.743Z,27.73
2019-05-11T04:22:36.927Z,28.50
2019-05-11T04:25:06.416Z,28.45
2019-05-11T04:27:35.793Z,29.48
2019-05-11T04:30:07.923Z,27.98
2019-05-11T04:32:37.152Z,26.95
2019-05-11T04:35:06.567Z,26.62
2019-05-11T04:37:35.744Z,27.05
2019-05-11T04:40:05.504Z,26.07
2019-05-11T04:42:51.811Z,26.50
2019-05-11T04:45:07.355Z,26.82
2019-05-11T04:47:36.748Z,25.92
2019-05-11T04:50:09.025Z,25.90
2019-05-11T04:52:38.194Z,26.33
2019-05-11T04:55:07.407Z,25.80
2019-05-11T04:57:36.704Z,25.48
2019-05-11T05:00:06.540Z,24.40
2019-05-11T05:02:35.747Z,25.37
2019-05-11T05:05:05.754Z,25.48
2019-05-11T05:07:34.938Z,25.82
2019-05-11T05:10:05.115Z,26.25
2019-05-11T05:12:34.298Z,27.20
2019-05-11T05:15:04.176Z,25.68
2019-05-11T05:17:33.403Z,25.27
2019-05-11T05:20:02.582Z,27.02
2019-05-11T05:22:31.880Z,25.80
2019-05-11T05:25:01.053Z,24.90
2019-05-11T05:27:30.298Z,24.82
2019-05-11T05:29:59.651Z,24.20
2019-05-11T05:32:28.898Z,23.85
2019-05-11T05:34:58.092Z,25.20
2019-05-11T05:37:27.288Z,22.98
2019-05-11T05:39:56.547Z,23.20
2019-05-11T05:42:26.169Z,23.00
2019-05-11T05:44:55.379Z,21.97
2019-05-11T05:47:24.634Z,23.77
2019-05-11T05:49:53.836Z,23.40
2019-05-11T05:52:23.110Z,22.95
2019-05-11T05:54:52.312Z,23.10
2019-05-11T05:57:21.501Z,23.80
2019-05-11T05:59:50.799Z,23.83
2019-05-11T06:02:19.993Z,23.02
2019-05-11T06:04:49.249Z,22.52
2019-05-11T06:07:18.497Z,23.20
2019-05-11T06:09:47.748Z,23.57
2019-05-11T06:12:16.939Z,22.77
2019-05-11T06:14:46.171Z,22.22
2019-05-11T06:17:15.426Z,23.25
2019-05-11T06:19:44.700Z,23.98
2019-05-11T06:22:14.680Z,23.07
2019-05-11T06:24:43.928Z,23.05
2019-05-11T06:27:13.167Z,22.75
2019-05-11T06:29:42.456Z,22.02
2019-05-11T06:32:11.622Z,22.60
2019-05-11T06:34:40.977Z,22.58
2019-05-11T06:37:10.608Z,21.62
2019-05-11T06:39:39.784Z,19.92
2019-05-11T06:42:09.079Z,19.98
2019-05-11T06:44:38.325Z,19.92
2019-05-11T06:47:07.510Z,19.67
2019-05-11T06:49:36.753Z,18.92
2019-05-11T06:52:06.103Z,19.70
2019-05-11T06:54:35.366Z,18.70
2019-05-11T06:57:04.562Z,18.98
2019-05-11T06:59:33.774Z,18.55
2019-05-11T07:02:03.032Z,19.50
2019-05-11T07:04:32.261Z,17.60
2019-05-11T07:07:01.456Z,17.98
2019-05-11T07:09:30.736Z,18.12
2019-05-11T07:12:00.130Z,17.20
2019-05-11T07:14:29.479Z,18.37
2019-05-11T07:16:58.903Z,18.67
2019-05-11T07:19:28.076Z,17.98
2019-05-11T07:21:57.386Z,18.25
2019-05-11T07:24:26.591Z,16.60
2019-05-11T07:26:55.836Z,16.85
2019-05-11T07:29:25.077Z,15.25
2019-05-11T07:31:54.329Z,14.13
2019-05-11T07:34:23.660Z,14.18
2019-05-11T07:36:53.287Z,12.88
2019-05-11T07:39:22.671Z,12.00
2019-05-11T07:41:51.950Z,11.85
2019-05-11T07:44:35.028Z,11.03
2019-05-11T07:46:52.642Z,11.70
2019-05-11T07:49:23.548Z,11.97
2019-05-11T07:51:53.085Z,11.78
2019-05-11T07:54:22.596Z,11.53
2019-05-11T07:56:51.889Z,10.93
2019-05-11T07:59:21.135Z,11.50
2019-05-11T08:01:50.507Z,11.00
2019-05-11T08:04:19.815Z,10.40
2019-05-11T08:06:49.143Z,12.70
2019-05-11T08:09:18.820Z,11.30
2019-05-11T08:11:48.282Z,11.57
2019-05-11T08:14:18.253Z,11.28
2019-05-11T08:16:48.209Z,10.53
2019-05-11T08:19:18.500Z,11.22
2019-05-11T08:21:48.230Z,10.72
2019-05-11T08:24:18.128Z,10.20
2019-05-11T08:26:48.128Z,11.12
2019-05-11T08:29:18.550Z,10.48
2019-05-11T08:31:48.756Z,11.03
2019-05-11T08:34:18.357Z,10.93
2019-05-11T08:36:48.113Z,9.78
2019-05-11T08:39:18.229Z,9.30
2019-05-11T08:41:48.777Z,8.50
2019-05-11T08:44:18.355Z,7.78
2019-05-11T08:46:48.048Z,8.83
2019-05-11T08:49:19.020Z,9.15
2019-05-11T08:51:48.444Z,6.85
2019-05-11T08:54:18.433Z,8.20
2019-05-11T08:56:48.678Z,6.62
2019-05-11T08:59:18.789Z,6.70
2019-05-11T09:01:48.476Z,6.33
2019-05-11T09:04:18.356Z,5.67
2019-05-11T09:06:48.069Z,5.40
2019-05-11T09:09:18.063Z,4.75
2019-05-11T09:11:48.235Z,5.17
2019-05-11T09:14:18.824Z,5.87
2019-05-11T09:16:49.058Z,6.25
2019-05-11T09:19:18.574Z,5.60
2019-05-11T09:21:48.321Z,5.53
2019-05-11T09:24:18.994Z,5.72
2019-05-11T09:26:48.407Z,4.95
2019-05-11T09:29:17.969Z,5.05
2019-05-11T09:31:48.691Z,6.05
2019-05-11T09:34:18.282Z,5.15
2019-05-11T09:36:48.027Z,5.53
2019-05-11T09:39:17.852Z,5.05
2019-05-11T09:41:48.807Z,5.47
2019-05-11T09:44:18.457Z,7.10
2019-05-11T09:46:48.006Z,4.83
2019-05-11T09:49:18.512Z,4.97
2019-05-11T09:51:48.868Z,5.47
2019-05-11T09:54:18.401Z,5.60
2019-05-11T09:56:48.623Z,5.30
2019-05-11T09:59:18.206Z,5.05
2019-05-11T10:01:48.367Z,4.58
2019-05-11T10:04:18.208Z,5.30
2019-05-11T10:06:48.211Z,5.20
2019-05-11T10:09:18.686Z,5.53
2019-05-11T10:11:48.190Z,6.35
2019-05-11T10:14:18.718Z,5.53
2019-05-11T10:16:49.116Z,5.72
2019-05-11T10:19:18.584Z,5.62
2019-05-11T10:21:48.666Z,5.40
2019-05-11T10:24:18.180Z,5.62
2019-05-11T10:26:48.704Z,4.95
2019-05-11T10:29:18.429Z,4.00
2019-05-11T10:31:48.164Z,3.70
2019-05-11T10:34:19.586Z,3.20
2019-05-11T10:36:49.091Z,3.58
2019-05-11T10:39:18.802Z,5.37
2019-05-11T10:41:48.258Z,4.60
2019-05-11T10:44:18.747Z,4.20
2019-05-11T10:46:48.499Z,4.80
2019-05-11T10:49:18.546Z,4.90
2019-05-11T10:51:48.646Z,5.45
2019-05-11T10:54:18.813Z,5.62
2019-05-11T10:56:48.345Z,7.35
2019-05-11T10:59:18.772Z,6.95
2019-05-11T11:01:48.521Z,6.95
2019-05-11T11:04:18.602Z,6.25
2019-05-11T11:06:48.528Z,5.92
2019-05-11T11:09:18.046Z,5.70
2019-05-11T11:11:48.856Z,5.28
2019-05-11T11:14:18.292Z,6.30
2019-05-11T11:16:48.057Z,5.37
2019-05-11T11:19:18.422Z,5.75
2019-05-11T11:21:48.735Z,6.20
2019-05-11T11:24:18.391Z,6.05
2019-05-11T11:26:48.596Z,5.00
2019-05-11T11:29:18.265Z,4.83
2019-05-11T11:31:48.186Z,4.53
2019-05-11T11:34:18.794Z,4.60
2019-05-11T11:36:48.594Z,5.08
2019-05-11T11:39:18.737Z,5.50
2019-05-11T11:41:48.702Z,5.55
2019-05-11T11:44:18.610Z,4.60
2019-05-11T11:46:54.634Z,4.67
2019-05-11T11:49:19.220Z,4.47
2019-05-11T11:51:48.681Z,5.37
2019-05-11T11:54:18.391Z,5.50
2019-05-11T11:56:48.543Z,6.00
2019-05-11T11:59:18.125Z,13.88
2019-05-11T12:01:48.683Z,6.03
2019-05-11T12:04:18.817Z,6.53
2019-05-11T12:06:49.021Z,6.42
2019-05-11T12:09:18.649Z,6.72
2019-05-11T12:11:48.568Z,7.80
2019-05-11T12:14:18.824Z,10.23
2019-05-11T12:17:03.672Z,9.63
2019-05-11T12:19:19.760Z,9.38
2019-05-11T12:21:49.082Z,9.25
2019-05-11T12:24:18.822Z,8.93
2019-05-11T12:26:48.295Z,10.65
2019-05-11T12:29:18.856Z,9.88
2019-05-11T12:31:48.691Z,10.15
2019-05-11T12:34:18.104Z,9.60
2019-05-11T12:36:47.978Z,10.75
2019-05-11T12:39:19.186Z,10.35
2019-05-11T12:41:48.536Z,11.38
2019-05-11T12:44:18.804Z,11.65
2019-05-11T12:46:49.000Z,11.10
2019-05-11T12:49:18.855Z,10.72
2019-05-11T12:51:48.778Z,10.88
2019-05-11T12:54:18.788Z,9.55
2019-05-11T12:56:49.013Z,8.88
2019-05-11T12:59:18.861Z,10.55
2019-05-11T13:01:48.725Z,10.25
2019-05-11T13:04:18.375Z,12.07
2019-05-11T13:06:48.616Z,12.82
2019-05-11T13:09:18.470Z,12.73
2019-05-11T13:11:48.324Z,13.43
2019-05-11T13:14:18.508Z,14.18
2019-05-11T13:16:48.813Z,14.30
2019-05-11T13:19:18.166Z,13.13
2019-05-11T13:21:48.705Z,14.90
2019-05-11T13:24:18.757Z,15.72
2019-05-11T13:26:48.645Z,16.07
2019-05-11T13:29:18.210Z,13.15
2019-05-11T13:31:48.575Z,12.20
2019-05-11T14:49:40.881Z,7.80
2019-05-11T14:52:10.293Z,7.85
2019-05-11T14:54:39.768Z,7.87
2019-05-11T14:57:08.956Z,7.37
2019-05-11T14:59:38.205Z,7.90
2019-05-11T15:02:12.057Z,7.83
2019-05-11T15:04:43.085Z,7.90
2019-05-11T15:07:12.496Z,8.75
2019-05-11T15:09:41.753Z,8.20
2019-05-11T15:12:10.930Z,8.60
2019-05-11T15:14:40.149Z,8.73
2019-05-11T15:17:09.275Z,10.10
2019-05-11T15:19:38.524Z,7.85
2019-05-11T15:22:08.665Z,7.95
2019-05-11T15:24:38.518Z,7.47
2019-05-11T15:27:08.201Z,7.05
2019-05-11T15:29:37.824Z,7.35
2019-05-11T15:32:08.489Z,6.00
2019-05-11T15:34:38.282Z,6.67
2019-05-11T15:37:08.408Z,7.35
2019-05-11T15:39:37.993Z,6.87
2019-05-11T15:42:14.601Z,6.15
2019-05-11T15:44:38.298Z,6.45
2019-05-11T15:47:07.887Z,6.25
2019-05-11T15:49:37.647Z,6.60
2019-05-11T15:52:08.342Z,6.90
2019-05-11T15:54:38.524Z,6.67
2019-05-11T15:57:08.371Z,6.15
2019-05-11T15:59:38.846Z,6.47
2019-05-11T16:02:08.674Z,6.47
2019-05-11T16:04:38.143Z,7.03
2019-05-11T16:07:08.912Z,6.25
2019-05-11T16:09:38.219Z,7.67
2019-05-11T16:12:07.564Z,6.60
2019-05-11T16:14:38.340Z,6.55
2019-05-11T16:17:08.760Z,6.97
2019-05-11T16:19:40.943Z,110.70
2019-05-11T16:22:10.048Z,10.20
2019-05-11T16:24:40.053Z,7.62
2019-05-11T16:27:09.381Z,7.55
2019-05-11T16:29:38.557Z,7.22
2019-05-11T16:32:08.394Z,31.60
2019-05-11T16:34:38.152Z,9.08
2019-05-11T16:37:09.969Z,10.70
2019-05-11T16:39:38.633Z,10.13
2019-05-11T16:42:08.484Z,6.33
2019-05-11T16:44:37.934Z,6.35
2019-05-11T16:47:08.741Z,8.78
2019-05-11T16:49:38.386Z,5.95
2019-05-11T16:52:10.063Z,18.90
2019-05-11T16:54:38.924Z,11.97
2019-05-11T16:57:08.622Z,7.15
2019-05-11T16:59:39.902Z,9.30
2019-05-11T17:02:08.931Z,7.60
2019-05-11T17:04:39.768Z,6.85
2019-05-11T17:07:09.168Z,9.05
2019-05-11T17:09:38.373Z,6.60
2019-05-11T17:12:08.553Z,7.10
2019-05-11T17:14:39.588Z,6.80
2019-05-11T17:17:08.970Z,6.90
2019-05-11T17:19:45.448Z,7.65
2019-05-11T17:22:09.237Z,7.25
2019-05-11T17:24:38.394Z,7.62
2019-05-11T17:27:08.850Z,12.40
2019-05-11T17:29:38.366Z,10.65
2019-05-11T17:32:08.542Z,10.08
2019-05-11T17:34:38.211Z,10.30
2019-05-11T17:37:08.929Z,8.88
2019-05-11T17:39:38.638Z,9.10
2019-05-11T17:42:09.028Z,7.22
2019-05-11T17:44:38.450Z,8.50
2019-05-11T17:47:08.413Z,9.68
2019-05-11T17:49:38.507Z,10.05
2019-05-11T17:52:09.387Z,9.50
2019-05-11T17:54:38.595Z,8.40
2019-05-11T17:57:07.982Z,8.60
2019-05-11T17:59:38.630Z,8.78
2019-05-11T18:02:09.501Z,8.83
2019-05-11T18:04:40.515Z,8.63
2019-05-11T18:07:24.100Z,8.43
2019-05-11T18:09:40.716Z,10.28
2019-05-11T18:12:10.033Z,9.75
2019-05-11T18:14:39.543Z,12.75
2019-05-11T18:17:10.110Z,14.20
2019-05-11T18:19:39.427Z,15.55
2019-05-11T18:22:08.695Z,17.37
2019-05-11T18:24:38.359Z,16.48
2019-05-11T18:27:08.323Z,18.48
2019-05-11T18:29:38.122Z,18.20
2019-05-11T18:32:07.424Z,18.77
2019-05-11T18:34:37.706Z,17.42
2019-05-11T18:37:08.770Z,18.42
2019-05-11T18:39:38.115Z,18.27
2019-05-11T18:42:08.271Z,18.95
2019-05-11T18:44:38.023Z,20.85
2019-05-11T18:47:08.824Z,19.42
2019-05-11T18:49:38.311Z,18.35
2019-05-11T18:52:08.236Z,18.00
2019-05-11T18:54:38.500Z,16.57
2019-05-11T18:57:08.240Z,18.87
2019-05-11T18:59:37.941Z,17.67
2019-05-11T19:02:08.454Z,19.17
2019-05-11T19:04:38.229Z,17.35
2019-05-11T19:07:16.409Z,17.23
2019-05-11T19:09:38.595Z,16.75
2019-05-11T19:12:08.563Z,16.12
2019-05-11T19:14:38.559Z,14.63
2019-05-11T19:17:08.194Z,15.23
2019-05-11T19:19:38.004Z,15.38
2019-05-11T19:22:09.009Z,15.15
2019-05-11T19:24:38.521Z,15.32
2019-05-11T19:27:08.168Z,16.62
2019-05-11T19:29:38.037Z,19.45
2019-05-11T19:32:10.824Z,19.77
2019-05-11T19:34:38.885Z,19.23
2019-05-11T19:37:08.710Z,19.12
2019-05-11T19:39:38.525Z,23.57
2019-05-11T19:42:07.991Z,101.70
2019-05-11T19:44:38.599Z,61.83
2019-05-11T19:47:08.882Z,56.13
2019-05-11T19:49:38.493Z,50.45
2019-05-11T19:52:08.644Z,39.85
2019-05-11T19:54:38.396Z,59.98
2019-05-11T19:57:08.323Z,65.95
2019-05-11T19:59:38.707Z,60.50
2019-05-11T20:02:09.021Z,54.38
2019-05-11T20:04:38.768Z,57.98
2019-05-11T20:07:08.731Z,52.48
2019-05-11T20:09:38.816Z,45.00
2019-05-11T20:12:08.232Z,61.08
2019-05-11T20:14:37.908Z,68.55
2019-05-11T20:17:08.968Z,68.22
2019-05-11T20:19:38.529Z,70.00
2019-05-11T20:22:07.799Z,66.75
2019-05-11T20:24:37.116Z,58.95
2019-05-11T20:27:08.076Z,59.18
2019-05-11T20:29:38.408Z,54.85
2019-05-11T20:32:08.188Z,47.17
2019-05-11T20:34:38.160Z,49.30
2019-05-11T20:37:07.889Z,48.28
2019-05-11T20:39:37.930Z,47.53
2019-05-11T20:42:08.728Z,45.75
2019-05-11T20:44:38.034Z,46.98
2019-05-11T20:47:07.291Z,43.20
2019-05-11T20:49:38.528Z,42.95
2019-05-11T20:52:08.666Z,42.27
2019-05-11T20:54:38.670Z,41.98
2019-05-11T20:57:08.890Z,42.20
2019-05-11T20:59:38.242Z,42.78
2019-05-11T21:02:09.256Z,41.02
2019-05-11T21:04:38.619Z,41.58
2019-05-11T21:07:08.503Z,43.10
2019-05-11T21:09:38.096Z,42.38
2019-05-11T21:12:08.154Z,45.17
2019-05-11T21:14:38.580Z,46.98
2019-05-11T21:17:09.011Z,47.25
2019-05-11T21:19:39.754Z,46.70
2019-05-11T21:22:09.445Z,45.33
2019-05-11T21:24:38.757Z,45.30
2019-05-11T21:27:08.088Z,47.95
2019-05-11T21:29:38.731Z,48.63
2019-05-11T21:32:08.419Z,48.78
2019-05-11T21:34:38.388Z,49.08
2019-05-11T21:37:07.993Z,49.38
2019-05-11T21:39:37.886Z,48.08
2019-05-11T21:42:07.776Z,48.30
2019-05-11T21:44:37.257Z,48.40
2019-05-11T21:47:07.734Z,48.40
2019-05-11T21:49:37.831Z,50.20
2019-05-11T21:52:07.867Z,50.70
2019-05-11T21:54:38.682Z,51.30
2019-05-11T21:57:08.328Z,50.05
2019-05-11T21:59:37.975Z,50.95
2019-05-11T22:02:08.311Z,52.33
2019-05-11T22:04:38.852Z,52.13
2019-05-11T22:07:08.312Z,51.33
2019-05-11T22:09:38.382Z,54.65
2019-05-11T22:12:10.779Z,53.75
2019-05-11T22:14:39.960Z,52.17
2019-05-11T22:17:09.142Z,52.80
2019-05-11T22:19:40.433Z,52.80
2019-05-11T22:22:21.156Z,52.75
2019-05-11T22:24:40.419Z,52.88
2019-05-11T22:27:09.590Z,52.50
2019-05-11T22:29:38.905Z,52.40
2019-05-11T22:32:08.164Z,53.83
2019-05-11T22:34:38.686Z,54.30
2019-05-11T22:37:08.648Z,52.45
2019-05-11T22:39:38.028Z,51.42
2019-05-11T22:42:08.050Z,54.35
2019-05-11T22:44:38.650Z,53.33
2019-05-11T22:47:08.935Z,52.38
2019-05-11T22:49:38.340Z,67.00
2019-05-11T22:52:08.624Z,63.38
2019-05-11T22:54:38.422Z,59.83
2019-05-11T22:57:08.183Z,60.55
2019-05-11T22:59:38.456Z,60.75
2019-05-11T23:02:10.676Z,57.40
2019-05-11T23:04:38.975Z,58.87
2019-05-11T23:07:08.224Z,62.95
2019-05-11T23:09:38.191Z,61.28
2019-05-11T23:12:09.089Z,60.45
2019-05-11T23:14:38.564Z,57.55
2019-05-11T23:17:08.160Z,58.38
2019-05-11T23:19:38.100Z,55.43
2019-05-11T23:22:08.210Z,55.52
2019-05-11T23:24:37.712Z,55.78
2019-05-11T23:27:07.996Z,55.78
2019-05-11T23:29:38.443Z,54.98
2019-05-11T23:32:08.641Z,55.88
2019-05-11T23:34:38.771Z,52.38
2019-05-11T23:37:08.151Z,52.83
2019-05-11T23:39:38.779Z,52.23
2019-05-11T23:42:08.285Z,54.67
2019-05-11T23:44:37.547Z,51.48
2019-05-11T23:47:06.807Z,51.48
2019-05-11T23:49:36.118Z,53.20
2019-05-11T23:52:07.492Z,55.35
2019-05-11T23:54:38.247Z,52.17
2019-05-11T23:57:09.337Z,51.98
2019-05-11T23:59:38.677Z,48.92
